createdAt,value
2018-07-25T00:00:34.294Z,18.30
2018-07-25T00:03:02.800Z,18.30
2018-07-25T00:05:31.409Z,18.30
2018-07-25T00:07:59.905Z,18.30
2018-07-25T00:10:33.905Z,18.30
2018-07-25T00:13:02.496Z,18.20
2018-07-25T00:15:30.975Z,18.10
2018-07-25T00:17:59.567Z,18.10
2018-07-25T00:20:28.089Z,18.10
2018-07-25T00:22:56.567Z,18.10
2018-07-25T00:25:25.079Z,18.10
2018-07-25T00:27:53.633Z,18.10
2018-07-25T00:30:22.191Z,18.10
2018-07-25T00:32:50.650Z,18.10
2018-07-25T00:37:47.434Z,18.00
2018-07-25T00:42:44.221Z,18.00
2018-07-25T00:45:12.780Z,18.00
2018-07-25T00:47:41.292Z,18.00
2018-07-25T00:50:10.118Z,17.90
2018-07-25T00:52:38.616Z,17.90
2018-07-25T00:55:07.084Z,18.00
2018-07-25T00:57:35.536Z,17.90
2018-07-25T01:00:04.149Z,17.90
2018-07-25T01:02:32.600Z,17.90
2018-07-25T01:07:29.640Z,18.00
2018-07-25T01:09:58.178Z,18.00
2018-07-25T01:12:26.703Z,18.00
2018-07-25T01:14:55.216Z,18.00
2018-07-25T01:17:23.747Z,18.00
2018-07-25T01:19:52.599Z,18.00
2018-07-25T01:24:49.915Z,17.80
2018-07-25T01:27:18.397Z,17.80
2018-07-25T01:29:46.983Z,17.80
2018-07-25T01:32:15.457Z,17.80
2018-07-25T01:34:44.580Z,17.70
2018-07-25T01:37:13.161Z,17.60
2018-07-25T01:39:41.637Z,17.70
2018-07-25T01:42:10.237Z,17.60
2018-07-25T01:44:38.713Z,17.50
2018-07-25T01:47:07.189Z,17.40
2018-07-25T01:49:35.717Z,17.40
2018-07-25T01:52:04.359Z,17.30
2018-07-25T01:54:32.963Z,17.40
2018-07-25T01:57:01.551Z,17.30
2018-07-25T01:59:30.919Z,17.40
2018-07-25T02:02:00.657Z,17.40
2018-07-25T02:04:29.402Z,17.30
2018-07-25T02:06:57.923Z,17.30
2018-07-25T02:09:26.500Z,17.30
2018-07-25T02:11:54.982Z,17.40
2018-07-25T02:16:51.710Z,17.30
2018-07-25T02:19:20.198Z,17.30
2018-07-25T02:21:48.766Z,17.30
2018-07-25T02:24:17.278Z,17.30
2018-07-25T02:26:45.780Z,17.20
2018-07-25T02:29:14.272Z,17.20
2018-07-25T02:31:42.733Z,17.10
2018-07-25T02:34:16.616Z,17.10
2018-07-25T02:36:45.106Z,17.20
2018-07-25T02:39:14.532Z,17.20
2018-07-25T02:41:44.220Z,17.20
2018-07-25T02:44:13.016Z,17.10
2018-07-25T02:46:41.494Z,17.20
2018-07-25T02:49:10.282Z,17.10
2018-07-25T02:51:38.736Z,17.10
2018-07-25T02:54:07.612Z,17.20
2018-07-25T02:56:36.160Z,17.10
2018-07-25T02:59:05.153Z,17.10
2018-07-25T03:01:34.219Z,17.10
2018-07-25T03:04:02.837Z,17.10
2018-07-25T03:06:31.310Z,17.10
2018-07-25T03:08:59.999Z,17.00
2018-07-25T03:11:28.608Z,17.00
2018-07-25T03:13:57.122Z,16.90
2018-07-25T03:16:25.647Z,16.90
2018-07-25T03:21:22.252Z,16.80
2018-07-25T03:23:50.727Z,16.80
2018-07-25T03:26:19.221Z,16.90
2018-07-25T03:28:47.871Z,16.80
2018-07-25T03:31:16.489Z,16.80
2018-07-25T03:33:44.945Z,16.80
2018-07-25T03:36:13.565Z,16.80
2018-07-25T03:38:42.150Z,16.70
2018-07-25T03:41:10.633Z,16.70
2018-07-25T03:43:39.120Z,16.70
2018-07-25T03:46:07.646Z,16.70
2018-07-25T03:48:36.327Z,16.70
2018-07-25T03:51:04.859Z,16.60
2018-07-25T03:53:33.368Z,16.60
2018-07-25T03:56:01.894Z,16.60
2018-07-25T03:58:30.406Z,16.60
2018-07-25T04:00:59.020Z,16.60
2018-07-25T04:03:27.498Z,16.60
2018-07-25T04:05:56.078Z,16.60
2018-07-25T04:08:24.679Z,16.60
2018-07-25T04:10:53.209Z,16.60
2018-07-25T04:13:21.772Z,16.60
2018-07-25T04:15:50.252Z,16.60
2018-07-25T04:18:18.995Z,16.60
2018-07-25T04:20:47.515Z,16.70
2018-07-25T04:23:16.035Z,16.80
2018-07-25T04:25:45.183Z,16.80
2018-07-25T04:28:16.995Z,16.80
2018-07-25T04:30:47.704Z,16.90
2018-07-25T04:33:16.202Z,16.90
2018-07-25T04:35:44.690Z,16.90
2018-07-25T04:38:13.276Z,16.90
2018-07-25T04:40:41.885Z,17.00
2018-07-25T04:43:10.716Z,17.00
2018-07-25T04:45:39.345Z,17.10
2018-07-25T04:48:07.916Z,17.20
2018-07-25T04:50:36.572Z,17.20
2018-07-25T04:53:05.342Z,17.20
2018-07-25T04:55:33.916Z,17.30
2018-07-25T04:58:02.452Z,17.40
2018-07-25T05:00:31.024Z,17.40
2018-07-25T05:02:59.611Z,17.50
2018-07-25T05:05:28.175Z,17.60
2018-07-25T05:07:56.698Z,17.70
2018-07-25T05:10:25.258Z,17.70
2018-07-25T05:12:53.998Z,17.80
2018-07-25T05:15:22.492Z,17.90
2018-07-25T05:17:51.040Z,17.90
2018-07-25T05:20:19.687Z,18.00
2018-07-25T05:22:48.279Z,18.10
2018-07-25T05:25:16.853Z,18.20
2018-07-25T05:27:45.493Z,18.30
2018-07-25T05:30:14.046Z,18.40
2018-07-25T05:32:42.613Z,18.50
2018-07-25T05:35:11.289Z,18.60
2018-07-25T05:37:40.004Z,18.70
2018-07-25T05:40:08.565Z,18.80
2018-07-25T05:42:37.135Z,18.90
2018-07-25T05:45:06.018Z,18.90
2018-07-25T05:47:34.526Z,19.10
2018-07-25T05:50:03.219Z,19.20
2018-07-25T05:52:31.773Z,19.30
2018-07-25T05:55:00.482Z,19.40
2018-07-25T05:57:29.114Z,19.50
2018-07-25T05:59:57.659Z,19.60
2018-07-25T06:02:26.239Z,19.60
2018-07-25T06:04:54.760Z,19.70
2018-07-25T06:07:23.312Z,19.80
2018-07-25T06:09:51.931Z,19.90
2018-07-25T06:12:20.484Z,20.00
2018-07-25T06:14:49.091Z,20.10
2018-07-25T06:17:17.641Z,20.20
2018-07-25T06:19:46.251Z,20.30
2018-07-25T06:22:14.827Z,20.40
2018-07-25T06:24:43.516Z,20.50
2018-07-25T06:27:12.058Z,20.60
2018-07-25T06:29:40.666Z,20.70
2018-07-25T06:32:09.745Z,20.80
2018-07-25T06:34:38.304Z,20.90
2018-07-25T06:37:06.879Z,21.00
2018-07-25T06:39:35.479Z,21.10
2018-07-25T06:42:04.061Z,21.20
2018-07-25T06:44:32.602Z,21.30
2018-07-25T06:47:01.237Z,21.40
2018-07-25T06:49:29.792Z,21.50
2018-07-25T06:51:58.415Z,21.60
2018-07-25T06:54:26.961Z,21.60
2018-07-25T06:56:55.538Z,21.70
2018-07-25T06:59:24.193Z,21.80
2018-07-25T07:01:52.771Z,21.90
2018-07-25T07:04:21.337Z,22.00
2018-07-25T07:06:49.948Z,22.20
2018-07-25T07:09:18.466Z,22.30
2018-07-25T07:11:47.033Z,22.40
2018-07-25T07:14:15.565Z,22.40
2018-07-25T07:16:44.148Z,22.50
2018-07-25T07:19:12.776Z,22.50
2018-07-25T07:21:41.516Z,22.60
2018-07-25T07:24:10.265Z,22.60
2018-07-25T07:26:38.859Z,22.70
2018-07-25T07:29:07.442Z,22.80
2018-07-25T07:31:36.006Z,22.80
2018-07-25T07:34:04.617Z,22.90
2018-07-25T07:36:33.268Z,23.00
2018-07-25T07:39:01.820Z,23.00
2018-07-25T07:41:30.417Z,23.10
2018-07-25T07:43:58.928Z,23.10
2018-07-25T07:46:27.629Z,23.30
2018-07-25T07:48:56.313Z,23.40
2018-07-25T07:51:24.841Z,23.60
2018-07-25T07:53:53.578Z,23.80
2018-07-25T07:56:22.207Z,23.90
2018-07-25T07:58:50.824Z,24.00
2018-07-25T08:01:19.390Z,24.10
2018-07-25T08:03:47.910Z,24.20
2018-07-25T08:06:16.508Z,24.30
2018-07-25T08:08:45.091Z,24.40
2018-07-25T08:11:17.902Z,24.50
2018-07-25T08:13:46.866Z,24.60
2018-07-25T08:16:15.774Z,24.60
2018-07-25T08:18:44.382Z,24.60
2018-07-25T08:21:13.504Z,24.70
2018-07-25T08:23:43.068Z,24.70
2018-07-25T08:26:11.698Z,24.70
2018-07-25T08:28:40.408Z,24.70
2018-07-25T08:31:09.127Z,24.70
2018-07-25T08:33:37.700Z,24.70
2018-07-25T08:36:06.263Z,24.70
2018-07-25T08:38:38.615Z,24.70
2018-07-25T08:41:07.538Z,24.80
2018-07-25T08:43:37.709Z,25.00
2018-07-25T08:46:07.490Z,25.10
2018-07-25T08:48:36.126Z,25.30
2018-07-25T08:51:04.773Z,25.50
2018-07-25T08:53:33.998Z,25.70
2018-07-25T08:56:02.577Z,25.70
2018-07-25T08:58:31.233Z,25.80
2018-07-25T09:01:00.206Z,25.90
2018-07-25T09:03:28.943Z,26.00
2018-07-25T09:05:57.510Z,26.10
2018-07-25T09:08:26.092Z,26.10
2018-07-25T09:10:54.685Z,26.10
2018-07-25T09:13:23.401Z,26.20
2018-07-25T09:15:51.992Z,26.30
2018-07-25T09:18:20.681Z,26.50
2018-07-25T09:20:49.241Z,26.60
2018-07-25T09:25:45.991Z,26.70
2018-07-25T09:28:14.557Z,26.80
2018-07-25T09:30:43.122Z,26.80
2018-07-25T09:33:11.768Z,26.90
2018-07-25T09:35:40.318Z,27.00
2018-07-25T09:38:08.887Z,27.10
2018-07-25T09:40:37.460Z,27.20
2018-07-25T09:43:06.149Z,27.10
2018-07-25T09:45:34.740Z,27.10
2018-07-25T09:48:03.462Z,27.20
2018-07-25T09:50:32.063Z,27.30
2018-07-25T09:53:00.675Z,27.30
2018-07-25T09:57:57.533Z,27.50
2018-07-25T10:00:31.444Z,27.50
2018-07-25T10:03:00.154Z,27.60
2018-07-25T10:05:28.805Z,27.70
2018-07-25T10:07:57.418Z,27.80
2018-07-25T10:10:26.040Z,27.90
2018-07-25T10:12:54.597Z,28.10
2018-07-25T10:15:23.180Z,28.20
2018-07-25T10:20:19.995Z,28.40
2018-07-25T10:22:48.605Z,28.50
2018-07-25T10:25:17.147Z,28.50
2018-07-25T10:27:45.668Z,28.40
2018-07-25T10:30:14.227Z,28.30
2018-07-25T10:32:42.764Z,28.20
2018-07-25T10:35:11.366Z,28.10
2018-07-25T10:37:39.964Z,28.00
2018-07-25T10:40:08.839Z,27.90
2018-07-25T10:42:37.519Z,28.10
2018-07-25T10:45:07.580Z,28.10
2018-07-25T10:47:36.115Z,28.10
2018-07-25T10:50:05.536Z,28.20
2018-07-25T10:52:34.175Z,28.30
2018-07-25T10:55:02.773Z,28.40
2018-07-25T10:57:31.607Z,28.60
2018-07-25T11:00:00.235Z,28.60
2018-07-25T11:02:28.883Z,28.70
2018-07-25T11:04:57.445Z,28.80
2018-07-25T11:07:25.996Z,28.90
2018-07-25T11:09:54.584Z,28.90
2018-07-25T11:12:23.180Z,28.70
2018-07-25T11:14:51.748Z,28.60
2018-07-25T11:17:20.350Z,28.60
2018-07-25T11:19:48.887Z,28.70
2018-07-25T11:22:18.372Z,28.70
2018-07-25T11:24:46.967Z,28.70
2018-07-25T11:27:15.590Z,28.70
2018-07-25T11:29:44.132Z,28.70
2018-07-25T11:32:12.613Z,28.70
2018-07-25T11:34:41.244Z,28.80
2018-07-25T11:37:10.014Z,28.90
2018-07-25T11:39:38.540Z,29.00
2018-07-25T11:42:07.182Z,29.00
2018-07-25T11:44:35.765Z,29.10
2018-07-25T11:47:04.341Z,29.20
2018-07-25T11:49:32.932Z,29.20
2018-07-25T11:52:01.667Z,29.20
2018-07-25T11:54:30.192Z,29.30
2018-07-25T11:56:58.778Z,29.40
2018-07-25T11:59:27.346Z,29.40
2018-07-25T12:01:55.943Z,29.40
2018-07-25T12:04:24.524Z,29.50
2018-07-25T12:06:53.104Z,29.50
2018-07-25T12:09:21.666Z,29.40
2018-07-25T12:11:50.323Z,29.30
2018-07-25T12:14:19.380Z,29.30
2018-07-25T12:16:48.020Z,29.30
2018-07-25T12:19:16.650Z,29.30
2018-07-25T12:21:45.238Z,29.30
2018-07-25T12:24:13.854Z,29.40
2018-07-25T12:26:42.467Z,29.40
2018-07-25T12:31:39.282Z,29.50
2018-07-25T12:34:07.860Z,29.40
2018-07-25T12:36:36.457Z,29.50
2018-07-25T12:39:08.091Z,29.50
2018-07-25T12:41:36.754Z,29.60
2018-07-25T12:44:05.521Z,29.60
2018-07-25T12:46:34.131Z,29.50
2018-07-25T12:49:02.823Z,29.30
2018-07-25T12:51:31.401Z,29.30
2018-07-25T12:54:00.174Z,29.40
2018-07-25T12:56:28.731Z,29.40
2018-07-25T12:58:57.313Z,29.30
2018-07-25T13:01:25.921Z,29.30
2018-07-25T13:03:54.548Z,29.30
2018-07-25T13:06:23.174Z,29.40
2018-07-25T13:08:51.799Z,29.30
2018-07-25T13:11:20.470Z,29.20
2018-07-25T13:13:49.121Z,29.10
2018-07-25T13:18:46.110Z,28.90
2018-07-25T13:21:14.664Z,28.80
2018-07-25T13:23:43.304Z,28.60
2018-07-25T13:26:11.907Z,28.10
2018-07-25T13:28:41.271Z,27.50
2018-07-25T13:31:09.920Z,26.70
2018-07-25T13:33:38.508Z,25.70
2018-07-25T13:36:07.116Z,24.90
2018-07-25T13:38:35.692Z,24.10
2018-07-25T13:41:04.323Z,23.60
2018-07-25T13:43:32.899Z,23.00
2018-07-25T13:46:01.793Z,22.50
2018-07-25T13:48:30.395Z,22.30
2018-07-25T13:50:59.084Z,22.00
2018-07-25T13:53:27.788Z,21.80
2018-07-25T13:55:56.433Z,21.40
2018-07-25T13:58:25.059Z,21.50
2018-07-25T14:00:53.690Z,21.50
2018-07-25T14:03:22.272Z,21.40
2018-07-25T14:05:50.947Z,21.30
2018-07-25T14:08:19.545Z,21.30
2018-07-25T14:10:48.100Z,21.30
2018-07-25T14:13:16.819Z,21.20
2018-07-25T14:15:45.483Z,21.10
2018-07-25T14:18:14.998Z,21.00
2018-07-25T14:20:43.655Z,20.90
2018-07-25T14:23:12.311Z,20.90
2018-07-25T14:25:40.973Z,20.80
2018-07-25T14:28:09.642Z,20.70
2018-07-25T14:30:38.322Z,20.60
2018-07-25T14:33:07.013Z,20.60
2018-07-25T14:35:35.648Z,20.60
2018-07-25T14:38:04.294Z,20.50
2018-07-25T14:40:32.985Z,20.50
2018-07-25T14:43:01.568Z,20.50
2018-07-25T14:45:30.178Z,20.50
2018-07-25T14:47:58.835Z,20.50
2018-07-25T14:50:27.367Z,20.60
2018-07-25T14:52:55.945Z,20.60
2018-07-25T14:55:24.562Z,20.50
2018-07-25T14:57:53.382Z,20.50
2018-07-25T15:00:22.292Z,20.70
2018-07-25T15:02:51.188Z,20.80
2018-07-25T15:05:19.774Z,21.00
2018-07-25T15:07:48.484Z,21.10
2018-07-25T15:10:17.168Z,21.30
2018-07-25T15:13:00.362Z,21.50
2018-07-25T15:15:29.065Z,21.60
2018-07-25T15:17:57.687Z,21.80
2018-07-25T15:20:26.327Z,21.90
2018-07-25T15:22:54.913Z,21.90
2018-07-25T15:25:23.507Z,22.00
2018-07-25T15:27:52.433Z,22.20
2018-07-25T15:30:21.096Z,22.20
2018-07-25T15:32:49.719Z,22.30
2018-07-25T15:35:18.291Z,22.40
2018-07-25T15:37:46.971Z,22.50
2018-07-25T15:40:15.567Z,22.60
2018-07-25T15:42:44.217Z,22.60
2018-07-25T15:45:12.823Z,22.70
2018-07-25T15:47:41.451Z,22.70
2018-07-25T15:50:10.055Z,22.80
2018-07-25T15:52:38.655Z,22.90
2018-07-25T15:55:07.341Z,22.90
2018-07-25T15:57:36.023Z,23.00
2018-07-25T16:00:05.981Z,23.10
2018-07-25T16:02:34.929Z,23.10
2018-07-25T16:05:03.619Z,23.20
2018-07-25T16:07:32.222Z,23.20
2018-07-25T16:10:00.869Z,23.30
2018-07-25T16:12:29.429Z,23.30
2018-07-25T16:14:58.047Z,23.40
2018-07-25T16:17:26.694Z,23.50
2018-07-25T16:19:55.321Z,23.50
2018-07-25T16:22:23.931Z,23.50
2018-07-25T16:24:52.513Z,23.50
2018-07-25T16:27:21.116Z,23.40
2018-07-25T16:29:49.738Z,23.40
2018-07-25T16:32:18.308Z,23.40
2018-07-25T16:34:46.892Z,23.40
2018-07-25T16:37:15.841Z,23.40
2018-07-25T16:39:44.437Z,23.50
2018-07-25T16:42:13.041Z,23.40
2018-07-25T16:44:41.573Z,23.40
2018-07-25T16:47:10.466Z,23.20
2018-07-25T16:49:39.185Z,23.10
2018-07-25T16:52:07.832Z,23.00
2018-07-25T16:54:36.498Z,23.00
2018-07-25T16:57:05.407Z,23.00
2018-07-25T16:59:34.075Z,23.00
2018-07-25T17:02:02.829Z,23.00
2018-07-25T17:04:31.425Z,23.00
2018-07-25T17:07:00.047Z,23.00
2018-07-25T17:09:28.629Z,23.00
2018-07-25T17:11:57.236Z,23.00
2018-07-25T17:14:25.913Z,23.00
2018-07-25T17:16:54.493Z,23.00
2018-07-25T17:19:23.100Z,23.00
2018-07-25T17:21:51.797Z,23.00
2018-07-25T17:24:20.444Z,22.90
2018-07-25T17:26:49.095Z,22.80
2018-07-25T17:29:17.730Z,22.80
2018-07-25T17:31:46.363Z,22.70
2018-07-25T17:34:14.976Z,22.70
2018-07-25T17:36:43.628Z,22.60
2018-07-25T17:39:12.633Z,22.60
2018-07-25T17:41:41.935Z,22.60
2018-07-25T17:44:10.554Z,22.60
2018-07-25T17:46:39.444Z,22.60
2018-07-25T17:49:08.134Z,22.60
2018-07-25T17:51:36.718Z,22.60
2018-07-25T17:54:05.338Z,22.60
2018-07-25T17:56:34.053Z,22.60
2018-07-25T18:01:30.989Z,22.70
2018-07-25T18:03:59.689Z,22.70
2018-07-25T18:06:28.442Z,22.70
2018-07-25T18:08:57.129Z,22.80
2018-07-25T18:11:25.717Z,22.70
2018-07-25T18:13:59.624Z,22.80
2018-07-25T18:16:28.298Z,22.80
2018-07-25T18:18:57.111Z,22.70
2018-07-25T18:21:25.922Z,22.60
2018-07-25T18:23:54.590Z,22.60
2018-07-25T18:26:23.227Z,22.60
2018-07-25T18:28:51.931Z,22.50
2018-07-25T18:31:20.593Z,22.40
2018-07-25T18:33:49.378Z,22.40
2018-07-25T18:36:18.007Z,22.30
2018-07-25T18:38:46.799Z,22.20
2018-07-25T18:41:15.540Z,22.10
2018-07-25T18:43:44.305Z,22.00
2018-07-25T18:46:13.074Z,22.00
2018-07-25T18:48:41.971Z,21.90
2018-07-25T18:51:10.698Z,21.80
2018-07-25T18:53:39.433Z,21.80
2018-07-25T18:56:08.422Z,21.70
2018-07-25T18:58:37.079Z,21.60
2018-07-25T19:01:05.852Z,21.60
2018-07-25T19:03:34.533Z,21.60
2018-07-25T19:06:03.254Z,21.60
2018-07-25T19:08:32.075Z,21.60
2018-07-25T19:11:00.935Z,21.60
2018-07-25T19:13:33.716Z,21.50
2018-07-25T19:16:03.149Z,21.40
2018-07-25T19:18:31.936Z,21.30
2018-07-25T19:21:00.791Z,21.30
2018-07-25T19:23:29.708Z,21.20
2018-07-25T19:25:58.438Z,21.20
2018-07-25T19:28:27.219Z,21.20
2018-07-25T19:30:56.028Z,21.20
2018-07-25T19:33:24.825Z,21.20
2018-07-25T19:35:53.720Z,21.20
2018-07-25T19:38:22.523Z,21.20
2018-07-25T19:40:51.303Z,21.20
2018-07-25T19:43:20.952Z,21.10
2018-07-25T19:45:50.370Z,21.10
2018-07-25T19:48:19.473Z,21.00
2018-07-25T19:50:48.411Z,20.90
2018-07-25T19:53:17.269Z,20.80
2018-07-25T19:55:46.105Z,20.70
2018-07-25T19:58:14.956Z,20.70
2018-07-25T20:00:43.898Z,20.60
2018-07-25T20:03:13.381Z,20.60
2018-07-25T20:05:42.140Z,20.50
2018-07-25T20:08:10.924Z,20.50
2018-07-25T20:10:39.757Z,20.50
2018-07-25T20:13:09.208Z,20.50
2018-07-25T20:15:43.810Z,20.40
2018-07-25T20:18:12.555Z,20.30
2018-07-25T20:20:41.375Z,20.30
2018-07-25T20:23:10.205Z,20.30
2018-07-25T20:25:38.957Z,20.30
2018-07-25T20:28:07.714Z,20.30
2018-07-25T20:30:37.425Z,20.20
2018-07-25T20:33:06.263Z,20.20
2018-07-25T20:35:35.126Z,20.20
2018-07-25T20:38:03.928Z,20.10
2018-07-25T20:40:32.659Z,20.10
2018-07-25T20:43:01.395Z,20.10
2018-07-25T20:45:30.141Z,20.00
2018-07-25T20:47:58.809Z,20.00
2018-07-25T20:50:27.531Z,20.00
2018-07-25T20:52:56.297Z,20.00
2018-07-25T20:55:27.097Z,20.00
2018-07-25T20:57:55.676Z,20.00
2018-07-25T21:00:29.601Z,20.10
2018-07-25T21:02:58.220Z,20.10
2018-07-25T21:05:26.788Z,20.10
2018-07-25T21:07:55.463Z,20.10
2018-07-25T21:10:24.154Z,20.10
2018-07-25T21:12:52.734Z,20.00
2018-07-25T21:15:21.316Z,20.00
2018-07-25T21:17:49.900Z,19.90
2018-07-25T21:20:18.479Z,19.90
2018-07-25T21:22:47.043Z,19.70
2018-07-25T21:25:15.548Z,19.70
2018-07-25T21:27:44.130Z,19.60
2018-07-25T21:30:12.731Z,19.70
2018-07-25T21:32:41.424Z,19.70
2018-07-25T21:35:10.166Z,19.70
2018-07-25T21:37:38.736Z,19.70
2018-07-25T21:40:07.351Z,19.70
2018-07-25T21:42:35.871Z,19.70
2018-07-25T21:45:04.514Z,19.60
2018-07-25T21:47:33.128Z,19.60
2018-07-25T21:50:01.778Z,19.50
2018-07-25T21:52:30.316Z,19.50
2018-07-25T21:54:58.885Z,19.40
2018-07-25T21:57:27.448Z,19.50
2018-07-25T21:59:55.950Z,19.50
2018-07-25T22:02:24.460Z,19.50
2018-07-25T22:04:52.998Z,19.40
2018-07-25T22:07:21.595Z,19.40
2018-07-25T22:09:50.127Z,19.30
2018-07-25T22:12:18.725Z,19.30
2018-07-25T22:14:47.271Z,19.30
2018-07-25T22:17:15.988Z,19.30
2018-07-25T22:19:44.523Z,19.30
2018-07-25T22:22:13.105Z,19.30
2018-07-25T22:24:41.656Z,19.30
2018-07-25T22:27:10.238Z,19.30
2018-07-25T22:29:38.776Z,19.30
2018-07-25T22:32:07.393Z,19.20
2018-07-25T22:34:35.916Z,19.20
2018-07-25T22:37:04.459Z,19.30
2018-07-25T22:39:33.059Z,19.30
2018-07-25T22:42:01.613Z,19.30
2018-07-25T22:44:30.121Z,19.30
2018-07-25T22:46:58.694Z,19.30
2018-07-25T22:49:27.217Z,19.20
2018-07-25T22:51:55.735Z,19.20
2018-07-25T22:54:24.264Z,19.10
2018-07-25T22:56:52.772Z,19.10
2018-07-25T22:59:21.344Z,19.10
2018-07-25T23:01:49.888Z,19.10
2018-07-25T23:04:18.361Z,19.10
2018-07-25T23:06:46.917Z,19.20
2018-07-25T23:09:15.449Z,19.20
2018-07-25T23:11:43.949Z,19.20
2018-07-25T23:14:12.497Z,19.10
2018-07-25T23:16:40.995Z,19.10
2018-07-25T23:19:09.557Z,19.10
2018-07-25T23:21:38.107Z,19.10
2018-07-25T23:24:06.657Z,19.00
2018-07-25T23:26:35.213Z,19.00
2018-07-25T23:29:03.765Z,19.00
2018-07-25T23:31:32.359Z,18.90
2018-07-25T23:34:00.871Z,19.00
2018-07-25T23:36:29.290Z,19.00
2018-07-25T23:38:57.845Z,19.00
2018-07-25T23:41:26.371Z,19.00
2018-07-25T23:43:54.941Z,18.90
2018-07-25T23:46:23.486Z,18.80
2018-07-25T23:48:52.002Z,18.80
2018-07-25T23:51:20.504Z,18.80
2018-07-25T23:53:49.048Z,18.70
2018-07-25T23:56:17.550Z,18.70
2018-07-25T23:58:46.165Z,18.70
